Accueil
METAR-TAF:

METAR-TAF

Aéroports :

Büchel, Allemagne

Base aérienne de Büchel

latitude: 50-10N, longitude: 007-04E, altitude: 478 m

Observation

Le bulletin a été fait il y a 22 minutes, à 15:20 UTC
Vent 8 kt de est/nord-est
Température 22°C
Humidité 43%
Pression 1019 hPa
Visibilité 10 km ou plus

METAR: ETSB 211520Z AUTO 07008KT 9999 // ////// 22/09 Q1019 ///

Heure: 17:42 (15:42 UTC)

Prévision

Le bulletin a été fait il y a 29 heures et 32 minutes, à 10:10 UTC
Prévision valable du 20 à 08 UTC au 20 à 17 UTC
Vent 5 kt de est/sud-est
Visibilité: 1100 m
Quelques nuages à une hauteur de 35000 ft

TAF: ETSB 201010Z 2008/2017 11005KT 9999 NSW FEW350 CANCEL 1100 BY ETGL

Observations et prévisions météorologiques de plus de 4000 aéroports (messages METAR et TAF).

Les stations disponibles sont représentées par des disques jaunes et rouges sur la carte.

Passer la souris dessus pour voir le nom de la station.

Cliquer dessus pour voir les observations et prévisions météorologiques.

Pour changer de carte: cliquez sur les boutons verts avec une croix noire pour zoomer, sur le bouton vert avec un tiret pour effectuer un zoom arrière, ou sur les flèches vertes pour les cartes adjacentes.


METAR-TAF: